Cedar Glen Lakes, NJ

10:47 PM EST on February 23, 2017 (GMT -0500)
Village 5 | | Change Station

Elev 174 ft 39.97 °N, 74.36 °W | Updated 2 seconds ago

Partly Cloudy
Partly Cloudy
56.1 °F
Feels Like 56.1 °F
N
6.0
Wind Variable Wind from South

Today
High -- | Low -- °F
--% Chance of Precip.
Yesterday
High -- | Low -- °F
Precip. -- in
Pressure 29.94 in
Visibility 10.0 miles
Clouds Clear
Dew Point 50 °F
Humidity 79%
Rainfall 0.00 in
Snow Depth Not available.
6:39 AM 5:43 PM
Waning Crescent, 7% visible
METAR KMJX 240256Z AUTO 20007KT 10SM CLR 13/10 A2992 RMK AO2 SLP137 T01280100 53012
Pressure 29.94 in
Visibility 10.0 miles
Clouds Clear
Dew Point 50 °F
Humidity 79%
Rainfall 0.00 in
Snow Depth Not available.
6:39 AM 5:43 PM
Waning Crescent, 7% visible
METAR KMJX 240256Z AUTO 20007KT 10SM CLR 13/10 A2992 RMK AO2 SLP137 T01280100 53012

Get Your Daily Forecast Email!

Thanks for signing up!

Be on the lookout for a verification email in your inbox.

You'll start receiving the daily forecast at 8 AM.

×

10-Day Weather Forecast

Almanac

Astronomy

Feb. 23, 2017 Rise Set
Actual Time
Civil Twilight
Nautical Twilight
Astronomical Twilight
Moon
Length of Visible Light
Length of Day
Tomorrow will be .
, % of the Moon is Illuminated

Today's Extremes

State Highs State Lows

Community

WunderPhotos

Upload Photos

1,962,540 photos uploaded!

WunderBlog® & News

Nearby

Air Quality

  Air Quality AQ Index Pollutant
Not available.

Snow Depth

Station Depth Elevation

Earthquake Activity

City Distance Mag. Time & Date
Minimum magnitude displayed is 2.5.

Coastal Water Temperatures

Place Temperature

Stations

Nearby Weather Stations

Station Location Temp. Windchill Dew Point Humidity Wind Precip. Elev Updated Type
                   

Watches & Warnings

There are currently no watches in effect.